sensor_id;sensor_type;location;lat;lon;timestamp;pressure;altitude;pressure_sealevel;temperature;humidity
37878;BME280;23715;53.652;8.516;2023-07-29T00:03:22;100787.80;;;20.19;100.00
37878;BME280;23715;53.652;8.516;2023-07-29T00:08:25;100792.08;;;20.18;100.00
37878;BME280;23715;53.652;8.516;2023-07-29T00:13:25;100796.06;;;20.15;100.00
37878;BME280;23715;53.652;8.516;2023-07-29T00:18:26;100789.18;;;20.47;100.00
37878;BME280;23715;53.652;8.516;2023-07-29T00:23:27;100777.88;;;20.40;100.00
37878;BME280;23715;53.652;8.516;2023-07-29T00:28:27;100765.69;;;20.53;100.00
37878;BME280;23715;53.652;8.516;2023-07-29T00:33:27;100748.69;;;20.29;100.00
37878;BME280;23715;53.652;8.516;2023-07-29T00:38:28;100754.80;;;20.32;100.00
37878;BME280;23715;53.652;8.516;2023-07-29T00:43:28;100745.50;;;20.54;100.00
37878;BME280;23715;53.652;8.516;2023-07-29T00:48:28;100735.45;;;20.55;100.00
37878;BME280;23715;53.652;8.516;2023-07-29T00:53:28;100724.56;;;20.51;100.00
37878;BME280;23715;53.652;8.516;2023-07-29T00:58:28;100719.55;;;20.65;100.00
37878;BME280;23715;53.652;8.516;2023-07-29T01:03:28;100752.14;;;20.27;100.00
37878;BME280;23715;53.652;8.516;2023-07-29T01:08:41;100779.37;;;20.32;100.00
37878;BME280;23715;53.652;8.516;2023-07-29T01:13:53;100780.57;;;20.51;100.00
37878;BME280;23715;53.652;8.516;2023-07-29T01:18:56;100761.70;;;20.56;100.00
37878;BME280;23715;53.652;8.516;2023-07-29T01:24:00;100724.52;;;20.55;100.00
37878;BME280;23715;53.652;8.516;2023-07-29T01:29:02;100729.84;;;20.63;100.00
37878;BME280;23715;53.652;8.516;2023-07-29T01:34:06;100720.74;;;20.73;100.00
37878;BME280;23715;53.652;8.516;2023-07-29T01:39:05;100729.44;;;20.83;100.00
37878;BME280;23715;53.652;8.516;2023-07-29T01:44:06;100714.60;;;20.82;100.00
37878;BME280;23715;53.652;8.516;2023-07-29T01:49:07;100712.70;;;20.82;100.00
37878;BME280;23715;53.652;8.516;2023-07-29T01:54:07;100709.03;;;20.79;100.00
37878;BME280;23715;53.652;8.516;2023-07-29T01:59:08;100696.88;;;20.71;100.00
37878;BME280;23715;53.652;8.516;2023-07-29T02:04:08;100705.64;;;20.60;100.00
37878;BME280;23715;53.652;8.516;2023-07-29T02:09:09;100716.88;;;20.42;100.00
37878;BME280;23715;53.652;8.516;2023-07-29T02:14:09;100716.88;;;20.43;100.00
37878;BME280;23715;53.652;8.516;2023-07-29T02:19:10;100701.86;;;20.43;100.00
37878;BME280;23715;53.652;8.516;2023-07-29T02:24:10;100707.77;;;20.47;100.00
37878;BME280;23715;53.652;8.516;2023-07-29T02:29:10;100705.23;;;20.45;100.00
37878;BME280;23715;53.652;8.516;2023-07-29T02:34:11;100693.71;;;20.39;100.00
37878;BME280;23715;53.652;8.516;2023-07-29T02:39:12;100682.31;;;20.29;100.00
37878;BME280;23715;53.652;8.516;2023-07-29T02:44:13;100685.52;;;20.22;100.00
37878;BME280;23715;53.652;8.516;2023-07-29T02:49:13;100681.61;;;20.20;100.00
37878;BME280;23715;53.652;8.516;2023-07-29T02:54:13;100680.14;;;20.18;100.00
37878;BME280;23715;53.652;8.516;2023-07-29T02:59:13;100678.21;;;20.12;100.00
37878;BME280;23715;53.652;8.516;2023-07-29T03:04:13;100671.64;;;20.17;100.00
37878;BME280;23715;53.652;8.516;2023-07-29T03:09:14;100671.67;;;19.95;100.00
37878;BME280;23715;53.652;8.516;2023-07-29T03:14:14;100672.19;;;20.05;100.00
37878;BME280;23715;53.652;8.516;2023-07-29T03:19:16;100671.09;;;20.00;100.00
37878;BME280;23715;53.652;8.516;2023-07-29T03:24:16;100665.56;;;19.93;100.00
37878;BME280;23715;53.652;8.516;2023-07-29T03:29:17;100668.86;;;19.99;100.00
37878;BME280;23715;53.652;8.516;2023-07-29T03:34:17;100667.19;;;19.98;100.00
37878;BME280;23715;53.652;8.516;2023-07-29T03:39:19;100660.45;;;19.94;100.00
37878;BME280;23715;53.652;8.516;2023-07-29T03:44:19;100655.13;;;19.64;100.00
37878;BME280;23715;53.652;8.516;2023-07-29T03:49:19;100662.39;;;19.57;100.00
37878;BME280;23715;53.652;8.516;2023-07-29T03:54:20;100679.94;;;19.69;100.00
37878;BME280;23715;53.652;8.516;2023-07-29T03:59:20;100684.90;;;19.81;100.00
37878;BME280;23715;53.652;8.516;2023-07-29T04:04:22;100681.95;;;19.82;100.00
37878;BME280;23715;53.652;8.516;2023-07-29T04:09:22;100690.92;;;19.98;100.00
37878;BME280;23715;53.652;8.516;2023-07-29T04:14:23;100685.58;;;20.00;100.00
37878;BME280;23715;53.652;8.516;2023-07-29T04:19:23;100678.03;;;20.02;100.00
37878;BME280;23715;53.652;8.516;2023-07-29T04:24:23;100674.85;;;19.99;100.00
37878;BME280;23715;53.652;8.516;2023-07-29T04:29:23;100676.02;;;20.00;100.00
37878;BME280;23715;53.652;8.516;2023-07-29T04:34:23;100669.50;;;20.01;100.00
37878;BME280;23715;53.652;8.516;2023-07-29T04:39:24;100676.51;;;20.11;100.00
37878;BME280;23715;53.652;8.516;2023-07-29T04:44:24;100680.58;;;20.21;100.00
37878;BME280;23715;53.652;8.516;2023-07-29T04:49:24;100681.06;;;20.32;100.00
37878;BME280;23715;53.652;8.516;2023-07-29T04:54:25;100685.22;;;20.38;100.00
37878;BME280;23715;53.652;8.516;2023-07-29T04:59:26;100683.18;;;20.47;100.00
37878;BME280;23715;53.652;8.516;2023-07-29T05:04:27;100671.53;;;20.49;100.00
37878;BME280;23715;53.652;8.516;2023-07-29T05:09:27;100670.83;;;20.40;100.00
37878;BME280;23715;53.652;8.516;2023-07-29T05:14:27;100676.41;;;20.43;100.00
37878;BME280;23715;53.652;8.516;2023-07-29T05:19:28;100684.30;;;20.42;100.00
37878;BME280;23715;53.652;8.516;2023-07-29T05:24:28;100680.95;;;20.46;100.00
37878;BME280;23715;53.652;8.516;2023-07-29T05:29:27;100681.55;;;20.59;100.00
37878;BME280;23715;53.652;8.516;2023-07-29T05:34:28;100688.36;;;20.53;100.00
37878;BME280;23715;53.652;8.516;2023-07-29T05:39:28;100679.73;;;20.66;100.00
37878;BME280;23715;53.652;8.516;2023-07-29T05:44:29;100669.70;;;20.80;100.00
37878;BME280;23715;53.652;8.516;2023-07-29T05:49:32;100661.50;;;20.80;100.00
37878;BME280;23715;53.652;8.516;2023-07-29T05:54:32;100658.28;;;20.88;100.00
37878;BME280;23715;53.652;8.516;2023-07-29T05:59:32;100651.63;;;21.10;100.00
37878;BME280;23715;53.652;8.516;2023-07-29T06:04:34;100642.62;;;21.30;100.00
37878;BME280;23715;53.652;8.516;2023-07-29T06:09:34;100627.66;;;21.12;100.00
37878;BME280;23715;53.652;8.516;2023-07-29T06:14:35;100636.69;;;21.13;100.00
37878;BME280;23715;53.652;8.516;2023-07-29T06:19:35;100640.02;;;21.39;100.00
37878;BME280;23715;53.652;8.516;2023-07-29T06:24:36;100639.38;;;21.37;100.00
37878;BME280;23715;53.652;8.516;2023-07-29T06:29:38;100632.16;;;21.47;100.00
37878;BME280;23715;53.652;8.516;2023-07-29T06:34:42;100624.86;;;21.43;100.00
37878;BME280;23715;53.652;8.516;2023-07-29T06:39:42;100622.05;;;21.60;100.00
37878;BME280;23715;53.652;8.516;2023-07-29T06:44:42;100614.90;;;21.66;100.00
37878;BME280;23715;53.652;8.516;2023-07-29T06:49:45;100622.28;;;21.66;100.00
37878;BME280;23715;53.652;8.516;2023-07-29T06:54:46;100622.05;;;21.74;100.00
37878;BME280;23715;53.652;8.516;2023-07-29T06:59:49;100619.87;;;21.67;100.00
37878;BME280;23715;53.652;8.516;2023-07-29T07:04:50;100607.64;;;21.69;100.00
37878;BME280;23715;53.652;8.516;2023-07-29T07:09:50;100609.42;;;21.79;100.00
37878;BME280;23715;53.652;8.516;2023-07-29T07:14:50;100607.97;;;21.63;100.00
37878;BME280;23715;53.652;8.516;2023-07-29T07:19:50;100619.13;;;21.69;100.00
37878;BME280;23715;53.652;8.516;2023-07-29T07:24:51;100607.95;;;21.77;100.00
37878;BME280;23715;53.652;8.516;2023-07-29T07:29:50;100606.16;;;21.87;100.00
37878;BME280;23715;53.652;8.516;2023-07-29T07:34:51;100602.98;;;21.96;100.00
37878;BME280;23715;53.652;8.516;2023-07-29T07:39:51;100599.41;;;21.89;100.00
37878;BME280;23715;53.652;8.516;2023-07-29T07:44:51;100602.05;;;21.87;100.00
37878;BME280;23715;53.652;8.516;2023-07-29T07:49:51;100594.11;;;22.08;100.00
37878;BME280;23715;53.652;8.516;2023-07-29T07:54:53;100592.95;;;22.13;100.00
37878;BME280;23715;53.652;8.516;2023-07-29T07:59:53;100585.56;;;22.20;100.00
37878;BME280;23715;53.652;8.516;2023-07-29T08:04:52;100590.00;;;22.08;100.00
37878;BME280;23715;53.652;8.516;2023-07-29T08:09:52;100591.88;;;22.14;100.00
37878;BME280;23715;53.652;8.516;2023-07-29T08:14:52;100588.46;;;22.02;100.00
37878;BME280;23715;53.652;8.516;2023-07-29T08:19:52;100590.36;;;21.95;100.00
37878;BME280;23715;53.652;8.516;2023-07-29T08:24:53;100587.09;;;22.02;100.00
37878;BME280;23715;53.652;8.516;2023-07-29T08:29:54;100591.91;;;22.27;100.00
37878;BME280;23715;53.652;8.516;2023-07-29T08:34:54;100582.91;;;22.22;100.00
37878;BME280;23715;53.652;8.516;2023-07-29T08:39:54;100582.81;;;22.33;100.00
37878;BME280;23715;53.652;8.516;2023-07-29T08:44:54;100586.06;;;22.33;100.00
37878;BME280;23715;53.652;8.516;2023-07-29T08:49:54;100580.51;;;22.59;100.00
37878;BME280;23715;53.652;8.516;2023-07-29T08:54:55;100574.23;;;22.68;100.00
37878;BME280;23715;53.652;8.516;2023-07-29T08:59:57;100562.98;;;22.60;100.00
37878;BME280;23715;53.652;8.516;2023-07-29T09:04:58;100562.84;;;22.87;100.00
37878;BME280;23715;53.652;8.516;2023-07-29T09:09:58;100556.56;;;23.18;100.00
37878;BME280;23715;53.652;8.516;2023-07-29T09:14:59;100554.25;;;23.15;100.00
37878;BME280;23715;53.652;8.516;2023-07-29T09:19:59;100563.83;;;23.31;100.00
37878;BME280;23715;53.652;8.516;2023-07-29T09:24:59;100559.78;;;23.50;100.00
37878;BME280;23715;53.652;8.516;2023-07-29T09:30:00;100556.50;;;23.75;100.00
37878;BME280;23715;53.652;8.516;2023-07-29T09:35:01;100553.63;;;23.64;100.00
37878;BME280;23715;53.652;8.516;2023-07-29T09:40:01;100552.33;;;23.82;100.00
37878;BME280;23715;53.652;8.516;2023-07-29T09:45:01;100553.09;;;23.80;100.00
37878;BME280;23715;53.652;8.516;2023-07-29T09:50:01;100553.05;;;23.87;100.00
37878;BME280;23715;53.652;8.516;2023-07-29T09:55:02;100560.28;;;23.81;100.00
37878;BME280;23715;53.652;8.516;2023-07-29T10:00:03;100567.89;;;23.88;100.00
37878;BME280;23715;53.652;8.516;2023-07-29T10:05:05;100558.28;;;23.88;100.00
37878;BME280;23715;53.652;8.516;2023-07-29T10:10:08;100553.63;;;23.64;100.00
37878;BME280;23715;53.652;8.516;2023-07-29T10:15:09;100550.39;;;23.48;100.00
37878;BME280;23715;53.652;8.516;2023-07-29T10:20:11;100555.01;;;23.80;100.00
37878;BME280;23715;53.652;8.516;2023-07-29T10:25:21;100556.92;;;23.79;100.00
37878;BME280;23715;53.652;8.516;2023-07-29T10:30:21;100569.03;;;23.81;100.00
37878;BME280;23715;53.652;8.516;2023-07-29T10:35:21;100555.72;;;24.12;100.00
37878;BME280;23715;53.652;8.516;2023-07-29T10:40:22;100560.73;;;24.43;100.00
37878;BME280;23715;53.652;8.516;2023-07-29T10:45:21;100547.26;;;24.23;100.00
37878;BME280;23715;53.652;8.516;2023-07-29T10:50:22;100549.36;;;24.48;100.00
37878;BME280;23715;53.652;8.516;2023-07-29T10:55:31;100545.78;;;24.39;100.00
37878;BME280;23715;53.652;8.516;2023-07-29T11:00:31;100541.90;;;24.55;100.00
37878;BME280;23715;53.652;8.516;2023-07-29T11:05:51;100535.17;;;24.91;100.00
37878;BME280;23715;53.652;8.516;2023-07-29T11:16:02;100532.13;;;24.81;100.00
37878;BME280;23715;53.652;8.516;2023-07-29T11:21:04;100546.80;;;24.53;100.00
37878;BME280;23715;53.652;8.516;2023-07-29T11:26:05;100544.09;;;24.65;100.00
37878;BME280;23715;53.652;8.516;2023-07-29T11:31:05;100556.25;;;23.77;100.00
37878;BME280;23715;53.652;8.516;2023-07-29T11:36:05;100564.58;;;24.14;100.00
37878;BME280;23715;53.652;8.516;2023-07-29T11:41:05;100566.08;;;24.38;100.00
37878;BME280;23715;53.652;8.516;2023-07-29T11:46:06;100569.05;;;24.73;100.00
37878;BME280;23715;53.652;8.516;2023-07-29T11:51:07;100551.98;;;24.83;100.00
37878;BME280;23715;53.652;8.516;2023-07-29T11:56:08;100551.21;;;24.85;100.00
37878;BME280;23715;53.652;8.516;2023-07-29T12:01:11;100547.95;;;24.85;100.00
37878;BME280;23715;53.652;8.516;2023-07-29T12:06:10;100542.48;;;24.97;100.00
37878;BME280;23715;53.652;8.516;2023-07-29T12:11:11;100563.16;;;24.51;100.00
37878;BME280;23715;53.652;8.516;2023-07-29T12:16:16;100556.48;;;24.86;100.00
37878;BME280;23715;53.652;8.516;2023-07-29T12:21:15;100552.75;;;25.32;100.00
37878;BME280;23715;53.652;8.516;2023-07-29T12:26:15;100546.24;;;25.47;100.00
37878;BME280;23715;53.652;8.516;2023-07-29T12:31:15;100555.65;;;25.61;100.00
37878;BME280;23715;53.652;8.516;2023-07-29T12:36:17;100558.34;;;25.70;100.00
37878;BME280;23715;53.652;8.516;2023-07-29T12:41:17;100556.42;;;25.92;100.00
37878;BME280;23715;53.652;8.516;2023-07-29T12:46:17;100563.98;;;25.75;100.00
37878;BME280;23715;53.652;8.516;2023-07-29T12:51:18;100561.05;;;25.56;100.00
37878;BME280;23715;53.652;8.516;2023-07-29T12:56:18;100557.84;;;25.94;100.00
37878;BME280;23715;53.652;8.516;2023-07-29T13:01:18;100560.70;;;26.11;100.00
37878;BME280;23715;53.652;8.516;2023-07-29T13:06:19;100548.27;;;26.23;100.00
37878;BME280;23715;53.652;8.516;2023-07-29T13:11:19;100559.32;;;26.11;100.00
37878;BME280;23715;53.652;8.516;2023-07-29T13:16:20;100546.73;;;26.15;100.00
37878;BME280;23715;53.652;8.516;2023-07-29T13:21:20;100545.55;;;26.25;100.00
37878;BME280;23715;53.652;8.516;2023-07-29T13:26:20;100545.16;;;26.19;100.00
37878;BME280;23715;53.652;8.516;2023-07-29T13:31:20;100541.05;;;26.34;100.00
37878;BME280;23715;53.652;8.516;2023-07-29T13:36:21;100547.31;;;26.17;100.00
37878;BME280;23715;53.652;8.516;2023-07-29T13:41:21;100556.02;;;26.52;100.00
37878;BME280;23715;53.652;8.516;2023-07-29T13:46:21;100553.14;;;26.18;100.00
37878;BME280;23715;53.652;8.516;2023-07-29T13:51:22;100554.25;;;25.94;100.00
37878;BME280;23715;53.652;8.516;2023-07-29T13:56:21;100540.42;;;26.17;100.00
37878;BME280;23715;53.652;8.516;2023-07-29T14:01:22;100535.59;;;25.86;100.00
37878;BME280;23715;53.652;8.516;2023-07-29T14:06:22;100549.33;;;25.06;100.00
37878;BME280;23715;53.652;8.516;2023-07-29T14:11:22;100644.34;;;23.91;100.00
37878;BME280;23715;53.652;8.516;2023-07-29T14:47:14;100817.14;;;22.49;100.00
37878;BME280;23715;53.652;8.516;2023-07-29T14:52:14;100803.45;;;22.56;100.00
37878;BME280;23715;53.652;8.516;2023-07-29T14:57:17;100794.91;;;22.41;100.00
37878;BME280;23715;53.652;8.516;2023-07-29T15:02:17;100811.50;;;21.93;100.00
37878;BME280;23715;53.652;8.516;2023-07-29T15:07:20;100812.68;;;21.40;100.00
37878;BME280;23715;53.652;8.516;2023-07-29T15:12:20;100803.84;;;21.20;100.00
37878;BME280;23715;53.652;8.516;2023-07-29T15:17:22;100814.45;;;21.37;100.00
37878;BME280;23715;53.652;8.516;2023-07-29T15:22:22;100839.09;;;21.19;100.00
37878;BME280;23715;53.652;8.516;2023-07-29T15:27:22;100870.33;;;21.56;100.00
37878;BME280;23715;53.652;8.516;2023-07-29T15:32:22;100869.50;;;21.86;100.00
37878;BME280;23715;53.652;8.516;2023-07-29T15:37:23;100816.41;;;22.51;100.00
37878;BME280;23715;53.652;8.516;2023-07-29T15:42:25;100769.28;;;22.52;100.00
37878;BME280;23715;53.652;8.516;2023-07-29T15:47:25;100741.29;;;22.30;100.00
37878;BME280;23715;53.652;8.516;2023-07-29T15:52:25;100736.22;;;22.47;100.00
37878;BME280;23715;53.652;8.516;2023-07-29T15:57:27;100738.09;;;21.86;100.00
37878;BME280;23715;53.652;8.516;2023-07-29T16:02:27;100740.62;;;22.08;100.00
37878;BME280;23715;53.652;8.516;2023-07-29T16:07:31;100743.78;;;22.51;100.00
37878;BME280;23715;53.652;8.516;2023-07-29T16:12:31;100731.89;;;22.01;100.00
37878;BME280;23715;53.652;8.516;2023-07-29T16:17:33;100726.94;;;22.01;100.00
37878;BME280;23715;53.652;8.516;2023-07-29T16:22:33;100723.77;;;22.04;100.00
37878;BME280;23715;53.652;8.516;2023-07-29T16:27:35;100713.12;;;22.45;100.00
37878;BME280;23715;53.652;8.516;2023-07-29T16:32:35;100701.09;;;22.53;100.00
37878;BME280;23715;53.652;8.516;2023-07-29T16:37:35;100708.70;;;21.91;100.00
37878;BME280;23715;53.652;8.516;2023-07-29T16:42:36;100721.34;;;21.78;100.00
37878;BME280;23715;53.652;8.516;2023-07-29T16:47:35;100724.80;;;21.63;100.00
37878;BME280;23715;53.652;8.516;2023-07-29T16:52:37;100734.91;;;21.76;100.00
37878;BME280;23715;53.652;8.516;2023-07-29T16:57:38;100747.90;;;21.91;100.00
37878;BME280;23715;53.652;8.516;2023-07-29T17:02:38;100767.69;;;22.13;100.00
37878;BME280;23715;53.652;8.516;2023-07-29T17:07:38;100751.50;;;21.54;100.00
37878;BME280;23715;53.652;8.516;2023-07-29T17:12:38;100767.09;;;21.60;100.00
37878;BME280;23715;53.652;8.516;2023-07-29T17:17:38;100750.94;;;22.06;100.00
37878;BME280;23715;53.652;8.516;2023-07-29T17:22:38;100739.72;;;22.31;100.00
37878;BME280;23715;53.652;8.516;2023-07-29T17:27:38;100724.60;;;22.51;100.00
37878;BME280;23715;53.652;8.516;2023-07-29T17:32:39;100720.42;;;22.35;100.00
37878;BME280;23715;53.652;8.516;2023-07-29T17:37:43;100720.09;;;22.14;100.00
37878;BME280;23715;53.652;8.516;2023-07-29T17:42:41;100710.60;;;22.17;100.00
37878;BME280;23715;53.652;8.516;2023-07-29T17:47:40;100726.81;;;21.85;100.00
37878;BME280;23715;53.652;8.516;2023-07-29T17:52:40;100722.08;;;21.96;100.00
37878;BME280;23715;53.652;8.516;2023-07-29T17:57:40;100714.64;;;22.28;100.00
37878;BME280;23715;53.652;8.516;2023-07-29T18:02:40;100712.10;;;22.26;100.00
37878;BME280;23715;53.652;8.516;2023-07-29T18:07:40;100726.30;;;22.19;100.00
37878;BME280;23715;53.652;8.516;2023-07-29T18:12:40;100730.84;;;22.16;100.00
37878;BME280;23715;53.652;8.516;2023-07-29T18:17:43;100727.34;;;22.58;100.00
37878;BME280;23715;53.652;8.516;2023-07-29T18:22:43;100725.06;;;22.35;100.00
37878;BME280;23715;53.652;8.516;2023-07-29T18:27:43;100725.94;;;22.65;100.00
37878;BME280;23715;53.652;8.516;2023-07-29T18:32:43;100728.89;;;22.63;100.00
37878;BME280;23715;53.652;8.516;2023-07-29T18:37:47;100734.37;;;22.70;100.00
37878;BME280;23715;53.652;8.516;2023-07-29T18:42:52;100744.61;;;21.85;100.00
37878;BME280;23715;53.652;8.516;2023-07-29T18:47:51;100751.70;;;21.97;100.00
37878;BME280;23715;53.652;8.516;2023-07-29T18:52:53;100751.19;;;22.37;100.00
37878;BME280;23715;53.652;8.516;2023-07-29T18:57:55;100751.28;;;22.47;100.00
37878;BME280;23715;53.652;8.516;2023-07-29T19:02:59;100757.68;;;22.10;100.00
37878;BME280;23715;53.652;8.516;2023-07-29T19:08:01;100758.86;;;22.18;100.00
37878;BME280;23715;53.652;8.516;2023-07-29T19:13:02;100749.91;;;22.07;100.00
37878;BME280;23715;53.652;8.516;2023-07-29T19:18:02;100750.42;;;22.13;100.00
37878;BME280;23715;53.652;8.516;2023-07-29T19:23:02;100764.84;;;22.04;100.00
37878;BME280;23715;53.652;8.516;2023-07-29T19:28:02;100767.57;;;21.84;100.00
37878;BME280;23715;53.652;8.516;2023-07-29T19:33:02;100781.36;;;21.80;100.00
37878;BME280;23715;53.652;8.516;2023-07-29T19:38:02;100782.27;;;21.63;100.00
37878;BME280;23715;53.652;8.516;2023-07-29T19:43:02;100782.83;;;21.45;100.00
37878;BME280;23715;53.652;8.516;2023-07-29T19:48:01;100781.28;;;21.36;100.00
37878;BME280;23715;53.652;8.516;2023-07-29T19:53:03;100785.78;;;21.02;100.00
37878;BME280;23715;53.652;8.516;2023-07-29T19:58:04;100807.55;;;20.71;100.00
37878;BME280;23715;53.652;8.516;2023-07-29T20:03:04;100821.13;;;20.75;100.00
37878;BME280;23715;53.652;8.516;2023-07-29T20:08:04;100829.60;;;20.70;100.00
37878;BME280;23715;53.652;8.516;2023-07-29T20:13:04;100823.72;;;20.66;100.00
37878;BME280;23715;53.652;8.516;2023-07-29T20:18:07;100827.29;;;20.66;100.00
37878;BME280;23715;53.652;8.516;2023-07-29T20:23:09;100828.38;;;20.51;100.00
37878;BME280;23715;53.652;8.516;2023-07-29T20:28:09;100827.69;;;20.53;100.00
37878;BME280;23715;53.652;8.516;2023-07-29T20:33:11;100822.88;;;20.33;100.00
37878;BME280;23715;53.652;8.516;2023-07-29T20:38:11;100825.56;;;20.26;100.00
37878;BME280;23715;53.652;8.516;2023-07-29T20:43:11;100825.11;;;20.23;100.00
37878;BME280;23715;53.652;8.516;2023-07-29T20:48:11;100818.67;;;19.98;100.00
37878;BME280;23715;53.652;8.516;2023-07-29T20:53:11;100815.09;;;20.08;100.00
37878;BME280;23715;53.652;8.516;2023-07-29T20:58:11;100809.84;;;19.96;100.00
37878;BME280;23715;53.652;8.516;2023-07-29T21:03:11;100803.84;;;19.86;100.00
37878;BME280;23715;53.652;8.516;2023-07-29T21:08:11;100803.80;;;19.64;100.00
37878;BME280;23715;53.652;8.516;2023-07-29T21:13:11;100805.88;;;19.62;100.00
37878;BME280;23715;53.652;8.516;2023-07-29T21:18:12;100806.37;;;19.51;100.00
37878;BME280;23715;53.652;8.516;2023-07-29T21:23:11;100817.06;;;19.42;100.00
37878;BME280;23715;53.652;8.516;2023-07-29T21:28:12;100833.87;;;19.60;100.00
37878;BME280;23715;53.652;8.516;2023-07-29T21:33:12;100826.83;;;19.77;100.00
37878;BME280;23715;53.652;8.516;2023-07-29T21:38:12;100825.38;;;19.70;100.00
37878;BME280;23715;53.652;8.516;2023-07-29T21:43:12;100837.49;;;19.82;100.00
37878;BME280;23715;53.652;8.516;2023-07-29T21:48:13;100842.28;;;20.17;100.00
37878;BME280;23715;53.652;8.516;2023-07-29T21:53:13;100835.51;;;20.34;100.00
37878;BME280;23715;53.652;8.516;2023-07-29T21:58:13;100829.81;;;20.46;100.00
37878;BME280;23715;53.652;8.516;2023-07-29T22:03:14;100807.97;;;20.46;100.00
37878;BME280;23715;53.652;8.516;2023-07-29T22:08:14;100785.55;;;20.40;100.00
37878;BME280;23715;53.652;8.516;2023-07-29T22:13:15;100784.75;;;20.46;100.00
37878;BME280;23715;53.652;8.516;2023-07-29T22:18:15;100779.98;;;20.16;100.00
37878;BME280;23715;53.652;8.516;2023-07-29T22:23:15;100779.50;;;19.84;100.00
37878;BME280;23715;53.652;8.516;2023-07-29T22:28:15;100778.14;;;19.84;100.00
37878;BME280;23715;53.652;8.516;2023-07-29T22:33:15;100777.62;;;19.96;100.00
37878;BME280;23715;53.652;8.516;2023-07-29T22:38:15;100774.59;;;20.01;100.00
37878;BME280;23715;53.652;8.516;2023-07-29T22:43:15;100778.05;;;19.99;100.00
37878;BME280;23715;53.652;8.516;2023-07-29T22:48:15;100780.05;;;20.01;100.00
37878;BME280;23715;53.652;8.516;2023-07-29T22:53:16;100772.28;;;20.09;100.00
37878;BME280;23715;53.652;8.516;2023-07-29T22:58:17;100776.44;;;19.94;100.00
37878;BME280;23715;53.652;8.516;2023-07-29T23:03:19;100782.55;;;19.96;100.00
37878;BME280;23715;53.652;8.516;2023-07-29T23:08:19;100773.83;;;19.97;100.00
37878;BME280;23715;53.652;8.516;2023-07-29T23:13:19;100776.04;;;19.76;100.00
37878;BME280;23715;53.652;8.516;2023-07-29T23:18:19;100769.63;;;19.68;100.00
37878;BME280;23715;53.652;8.516;2023-07-29T23:23:19;100796.44;;;19.80;100.00
37878;BME280;23715;53.652;8.516;2023-07-29T23:28:20;100822.40;;;19.50;100.00
37878;BME280;23715;53.652;8.516;2023-07-29T23:33:19;100841.44;;;20.05;100.00
37878;BME280;23715;53.652;8.516;2023-07-29T23:38:19;100843.28;;;20.59;100.00
37878;BME280;23715;53.652;8.516;2023-07-29T23:43:20;100828.97;;;20.57;100.00
37878;BME280;23715;53.652;8.516;2023-07-29T23:48:20;100812.20;;;20.60;100.00
37878;BME280;23715;53.652;8.516;2023-07-29T23:53:20;100798.88;;;20.61;100.00
37878;BME280;23715;53.652;8.516;2023-07-29T23:58:21;100794.82;;;20.57;100.00
